sensor_id;sensor_type;location;lat;lon;timestamp;P1;durP1;ratioP1;P2;durP2;ratioP2
45988;SDS011;31718;50.762;12.764;2022-07-05T00:00:57;3.70;;;1.50;;
45988;SDS011;31718;50.762;12.764;2022-07-05T00:03:23;4.45;;;1.60;;
45988;SDS011;31718;50.762;12.764;2022-07-05T00:05:49;4.70;;;1.48;;
45988;SDS011;31718;50.762;12.764;2022-07-05T00:08:15;4.78;;;1.60;;
45988;SDS011;31718;50.762;12.764;2022-07-05T00:10:41;4.88;;;1.60;;
45988;SDS011;31718;50.762;12.764;2022-07-05T00:13:07;4.65;;;1.80;;
45988;SDS011;31718;50.762;12.764;2022-07-05T00:15:32;4.53;;;1.65;;
45988;SDS011;31718;50.762;12.764;2022-07-05T00:17:58;5.05;;;1.63;;
45988;SDS011;31718;50.762;12.764;2022-07-05T00:20:24;4.95;;;1.73;;
45988;SDS011;31718;50.762;12.764;2022-07-05T00:22:49;4.53;;;2.45;;
45988;SDS011;31718;50.762;12.764;2022-07-05T00:25:15;3.75;;;1.60;;
45988;SDS011;31718;50.762;12.764;2022-07-05T00:27:41;4.03;;;1.40;;
45988;SDS011;31718;50.762;12.764;2022-07-05T00:30:06;4.20;;;1.52;;
45988;SDS011;31718;50.762;12.764;2022-07-05T00:32:33;4.50;;;1.60;;
45988;SDS011;31718;50.762;12.764;2022-07-05T00:34:59;3.80;;;1.58;;
45988;SDS011;31718;50.762;12.764;2022-07-05T00:37:24;5.88;;;1.70;;
45988;SDS011;31718;50.762;12.764;2022-07-05T00:39:50;4.18;;;1.70;;
45988;SDS011;31718;50.762;12.764;2022-07-05T00:42:16;4.20;;;1.50;;
45988;SDS011;31718;50.762;12.764;2022-07-05T00:44:42;5.13;;;1.60;;
45988;SDS011;31718;50.762;12.764;2022-07-05T00:47:08;6.88;;;2.28;;
45988;SDS011;31718;50.762;12.764;2022-07-05T00:49:36;4.47;;;2.30;;
45988;SDS011;31718;50.762;12.764;2022-07-05T00:52:03;5.35;;;2.35;;
45988;SDS011;31718;50.762;12.764;2022-07-05T00:54:31;6.50;;;2.40;;
45988;SDS011;31718;50.762;12.764;2022-07-05T00:56:58;4.85;;;2.50;;
45988;SDS011;31718;50.762;12.764;2022-07-05T00:59:24;4.68;;;2.40;;
45988;SDS011;31718;50.762;12.764;2022-07-05T01:01:50;4.82;;;2.30;;
45988;SDS011;31718;50.762;12.764;2022-07-05T01:04:16;6.03;;;2.38;;
45988;SDS011;31718;50.762;12.764;2022-07-05T01:06:42;4.93;;;2.20;;
45988;SDS011;31718;50.762;12.764;2022-07-05T01:09:12;5.25;;;2.17;;
45988;SDS011;31718;50.762;12.764;2022-07-05T01:11:38;4.57;;;2.28;;
45988;SDS011;31718;50.762;12.764;2022-07-05T01:14:05;4.72;;;2.40;;
45988;SDS011;31718;50.762;12.764;2022-07-05T01:16:37;4.57;;;2.17;;
45988;SDS011;31718;50.762;12.764;2022-07-05T01:19:04;3.80;;;1.90;;
45988;SDS011;31718;50.762;12.764;2022-07-05T01:21:31;4.93;;;2.00;;
45988;SDS011;31718;50.762;12.764;2022-07-05T01:24:02;4.22;;;1.92;;
45988;SDS011;31718;50.762;12.764;2022-07-05T01:26:28;5.05;;;2.00;;
45988;SDS011;31718;50.762;12.764;2022-07-05T01:28:54;4.50;;;2.10;;
45988;SDS011;31718;50.762;12.764;2022-07-05T01:31:20;4.60;;;2.15;;
45988;SDS011;31718;50.762;12.764;2022-07-05T01:33:46;5.72;;;2.50;;
45988;SDS011;31718;50.762;12.764;2022-07-05T01:36:12;4.55;;;2.20;;
45988;SDS011;31718;50.762;12.764;2022-07-05T01:38:39;4.82;;;2.20;;
45988;SDS011;31718;50.762;12.764;2022-07-05T01:41:05;5.45;;;2.15;;
45988;SDS011;31718;50.762;12.764;2022-07-05T01:43:33;4.70;;;2.45;;
45988;SDS011;31718;50.762;12.764;2022-07-05T01:45:58;5.32;;;2.20;;
45988;SDS011;31718;50.762;12.764;2022-07-05T01:48:28;5.13;;;2.60;;
45988;SDS011;31718;50.762;12.764;2022-07-05T01:51:05;5.25;;;2.40;;
45988;SDS011;31718;50.762;12.764;2022-07-05T01:53:36;5.40;;;2.78;;
45988;SDS011;31718;50.762;12.764;2022-07-05T01:56:04;6.25;;;2.40;;
45988;SDS011;31718;50.762;12.764;2022-07-05T01:58:30;6.00;;;2.55;;
45988;SDS011;31718;50.762;12.764;2022-07-05T02:00:57;6.22;;;2.42;;
45988;SDS011;31718;50.762;12.764;2022-07-05T02:03:24;5.28;;;2.40;;
45988;SDS011;31718;50.762;12.764;2022-07-05T02:05:51;6.13;;;2.72;;
45988;SDS011;31718;50.762;12.764;2022-07-05T02:08:18;4.70;;;2.20;;
45988;SDS011;31718;50.762;12.764;2022-07-05T02:10:44;5.93;;;2.50;;
45988;SDS011;31718;50.762;12.764;2022-07-05T02:13:10;4.93;;;2.60;;
45988;SDS011;31718;50.762;12.764;2022-07-05T02:15:37;5.05;;;2.60;;
45988;SDS011;31718;50.762;12.764;2022-07-05T02:18:04;5.03;;;2.80;;
45988;SDS011;31718;50.762;12.764;2022-07-05T02:20:31;5.00;;;3.00;;
45988;SDS011;31718;50.762;12.764;2022-07-05T02:22:57;5.15;;;2.90;;
45988;SDS011;31718;50.762;12.764;2022-07-05T02:25:23;4.80;;;2.65;;
45988;SDS011;31718;50.762;12.764;2022-07-05T02:27:50;4.53;;;2.55;;
45988;SDS011;31718;50.762;12.764;2022-07-05T02:30:17;6.78;;;2.92;;
45988;SDS011;31718;50.762;12.764;2022-07-05T02:32:43;4.88;;;2.80;;
45988;SDS011;31718;50.762;12.764;2022-07-05T02:35:09;5.75;;;3.05;;
45988;SDS011;31718;50.762;12.764;2022-07-05T02:37:35;6.80;;;3.00;;
45988;SDS011;31718;50.762;12.764;2022-07-05T02:40:01;5.60;;;3.33;;
45988;SDS011;31718;50.762;12.764;2022-07-05T02:42:28;4.80;;;2.80;;
45988;SDS011;31718;50.762;12.764;2022-07-05T02:44:53;6.38;;;3.20;;
45988;SDS011;31718;50.762;12.764;2022-07-05T02:47:19;6.85;;;3.20;;
45988;SDS011;31718;50.762;12.764;2022-07-05T02:49:44;5.88;;;3.05;;
45988;SDS011;31718;50.762;12.764;2022-07-05T02:52:10;5.65;;;3.10;;
45988;SDS011;31718;50.762;12.764;2022-07-05T02:54:36;6.22;;;3.63;;
45988;SDS011;31718;50.762;12.764;2022-07-05T02:57:02;7.95;;;3.72;;
45988;SDS011;31718;50.762;12.764;2022-07-05T02:59:28;8.20;;;3.70;;
45988;SDS011;31718;50.762;12.764;2022-07-05T03:01:55;5.88;;;3.55;;
45988;SDS011;31718;50.762;12.764;2022-07-05T03:04:21;6.65;;;3.45;;
45988;SDS011;31718;50.762;12.764;2022-07-05T03:06:46;6.57;;;3.53;;
45988;SDS011;31718;50.762;12.764;2022-07-05T03:09:12;10.73;;;3.85;;
45988;SDS011;31718;50.762;12.764;2022-07-05T03:11:37;7.90;;;3.85;;
45988;SDS011;31718;50.762;12.764;2022-07-05T03:14:03;5.70;;;3.70;;
45988;SDS011;31718;50.762;12.764;2022-07-05T03:16:29;6.75;;;3.70;;
45988;SDS011;31718;50.762;12.764;2022-07-05T03:18:54;7.15;;;4.10;;
45988;SDS011;31718;50.762;12.764;2022-07-05T03:21:20;7.78;;;3.60;;
45988;SDS011;31718;50.762;12.764;2022-07-05T03:23:46;6.47;;;3.67;;
45988;SDS011;31718;50.762;12.764;2022-07-05T03:26:12;7.03;;;4.05;;
45988;SDS011;31718;50.762;12.764;2022-07-05T03:28:37;7.28;;;3.70;;
45988;SDS011;31718;50.762;12.764;2022-07-05T03:31:03;5.85;;;3.80;;
45988;SDS011;31718;50.762;12.764;2022-07-05T03:33:29;6.13;;;3.92;;
45988;SDS011;31718;50.762;12.764;2022-07-05T03:35:54;5.82;;;3.65;;
45988;SDS011;31718;50.762;12.764;2022-07-05T03:38:20;6.30;;;3.60;;
45988;SDS011;31718;50.762;12.764;2022-07-05T03:40:46;7.53;;;3.80;;
45988;SDS011;31718;50.762;12.764;2022-07-05T03:43:11;6.97;;;3.88;;
45988;SDS011;31718;50.762;12.764;2022-07-05T03:45:37;6.50;;;3.58;;
45988;SDS011;31718;50.762;12.764;2022-07-05T03:48:03;6.05;;;3.42;;
45988;SDS011;31718;50.762;12.764;2022-07-05T03:50:29;5.93;;;3.65;;
45988;SDS011;31718;50.762;12.764;2022-07-05T03:52:54;6.63;;;3.88;;
45988;SDS011;31718;50.762;12.764;2022-07-05T03:55:20;6.90;;;3.90;;
45988;SDS011;31718;50.762;12.764;2022-07-05T03:57:46;6.28;;;3.85;;
45988;SDS011;31718;50.762;12.764;2022-07-05T04:00:12;5.72;;;3.67;;
45988;SDS011;31718;50.762;12.764;2022-07-05T04:02:39;6.57;;;3.83;;
45988;SDS011;31718;50.762;12.764;2022-07-05T04:05:05;7.65;;;3.53;;
45988;SDS011;31718;50.762;12.764;2022-07-05T04:07:32;6.60;;;3.70;;
45988;SDS011;31718;50.762;12.764;2022-07-05T04:09:58;6.25;;;3.42;;
45988;SDS011;31718;50.762;12.764;2022-07-05T04:12:24;6.65;;;3.45;;
45988;SDS011;31718;50.762;12.764;2022-07-05T04:14:50;5.80;;;3.40;;
45988;SDS011;31718;50.762;12.764;2022-07-05T04:17:16;6.80;;;3.63;;
45988;SDS011;31718;50.762;12.764;2022-07-05T04:19:41;5.55;;;3.28;;
45988;SDS011;31718;50.762;12.764;2022-07-05T04:22:07;7.03;;;3.20;;
45988;SDS011;31718;50.762;12.764;2022-07-05T04:24:32;5.40;;;3.20;;
45988;SDS011;31718;50.762;12.764;2022-07-05T04:27:18;6.53;;;3.42;;
45988;SDS011;31718;50.762;12.764;2022-07-05T04:29:44;5.72;;;3.28;;
45988;SDS011;31718;50.762;12.764;2022-07-05T04:32:09;6.00;;;2.97;;
45988;SDS011;31718;50.762;12.764;2022-07-05T04:34:35;6.57;;;3.40;;
45988;SDS011;31718;50.762;12.764;2022-07-05T04:37:00;5.03;;;3.22;;
45988;SDS011;31718;50.762;12.764;2022-07-05T04:39:26;7.82;;;3.30;;
45988;SDS011;31718;50.762;12.764;2022-07-05T04:41:52;5.10;;;2.97;;
45988;SDS011;31718;50.762;12.764;2022-07-05T04:44:17;5.93;;;3.05;;
45988;SDS011;31718;50.762;12.764;2022-07-05T04:46:43;6.13;;;2.90;;
45988;SDS011;31718;50.762;12.764;2022-07-05T04:49:08;4.93;;;2.60;;
45988;SDS011;31718;50.762;12.764;2022-07-05T04:51:34;5.38;;;2.53;;
45988;SDS011;31718;50.762;12.764;2022-07-05T04:53:59;6.28;;;3.50;;
45988;SDS011;31718;50.762;12.764;2022-07-05T04:56:25;6.30;;;3.22;;
45988;SDS011;31718;50.762;12.764;2022-07-05T04:58:51;6.68;;;3.05;;
45988;SDS011;31718;50.762;12.764;2022-07-05T05:01:16;5.53;;;2.85;;
45988;SDS011;31718;50.762;12.764;2022-07-05T05:03:42;7.10;;;2.75;;
45988;SDS011;31718;50.762;12.764;2022-07-05T05:06:07;6.30;;;2.75;;
45988;SDS011;31718;50.762;12.764;2022-07-05T05:08:33;6.30;;;2.60;;
45988;SDS011;31718;50.762;12.764;2022-07-05T05:10:59;5.63;;;2.50;;
45988;SDS011;31718;50.762;12.764;2022-07-05T05:13:24;6.35;;;2.70;;
45988;SDS011;31718;50.762;12.764;2022-07-05T05:15:50;5.72;;;2.67;;
45988;SDS011;31718;50.762;12.764;2022-07-05T05:18:16;5.97;;;2.50;;
45988;SDS011;31718;50.762;12.764;2022-07-05T05:20:43;5.47;;;2.40;;
45988;SDS011;31718;50.762;12.764;2022-07-05T05:23:09;4.97;;;2.67;;
45988;SDS011;31718;50.762;12.764;2022-07-05T05:25:34;5.50;;;2.50;;
45988;SDS011;31718;50.762;12.764;2022-07-05T05:28:01;4.97;;;2.42;;
45988;SDS011;31718;50.762;12.764;2022-07-05T05:30:27;5.20;;;2.70;;
45988;SDS011;31718;50.762;12.764;2022-07-05T05:32:53;8.10;;;3.08;;
45988;SDS011;31718;50.762;12.764;2022-07-05T05:35:18;5.50;;;2.65;;
45988;SDS011;31718;50.762;12.764;2022-07-05T05:40:16;5.93;;;2.35;;
45988;SDS011;31718;50.762;12.764;2022-07-05T05:42:42;5.55;;;2.50;;
45988;SDS011;31718;50.762;12.764;2022-07-05T05:45:08;5.57;;;2.60;;
45988;SDS011;31718;50.762;12.764;2022-07-05T05:47:42;5.07;;;2.40;;
45988;SDS011;31718;50.762;12.764;2022-07-05T05:50:22;5.65;;;2.40;;
45988;SDS011;31718;50.762;12.764;2022-07-05T05:52:52;4.60;;;2.22;;
45988;SDS011;31718;50.762;12.764;2022-07-05T05:55:19;7.05;;;2.38;;
45988;SDS011;31718;50.762;12.764;2022-07-05T05:57:45;6.45;;;2.50;;
45988;SDS011;31718;50.762;12.764;2022-07-05T06:00:11;5.30;;;2.33;;
45988;SDS011;31718;50.762;12.764;2022-07-05T06:02:38;5.18;;;2.03;;
45988;SDS011;31718;50.762;12.764;2022-07-05T06:05:05;4.70;;;2.10;;
45988;SDS011;31718;50.762;12.764;2022-07-05T06:07:30;4.55;;;1.90;;
45988;SDS011;31718;50.762;12.764;2022-07-05T06:09:56;5.40;;;1.90;;
45988;SDS011;31718;50.762;12.764;2022-07-05T06:12:22;6.13;;;2.00;;
45988;SDS011;31718;50.762;12.764;2022-07-05T06:14:47;5.78;;;2.08;;
45988;SDS011;31718;50.762;12.764;2022-07-05T06:17:13;4.47;;;1.80;;
45988;SDS011;31718;50.762;12.764;2022-07-05T06:19:39;5.03;;;1.70;;
45988;SDS011;31718;50.762;12.764;2022-07-05T06:22:04;4.70;;;1.70;;
45988;SDS011;31718;50.762;12.764;2022-07-05T06:24:30;4.82;;;2.03;;
45988;SDS011;31718;50.762;12.764;2022-07-05T06:26:55;5.40;;;1.63;;
45988;SDS011;31718;50.762;12.764;2022-07-05T06:29:21;4.38;;;1.65;;
45988;SDS011;31718;50.762;12.764;2022-07-05T06:31:47;7.38;;;1.58;;
45988;SDS011;31718;50.762;12.764;2022-07-05T06:34:12;4.60;;;1.42;;
45988;SDS011;31718;50.762;12.764;2022-07-05T06:36:38;4.32;;;1.30;;
45988;SDS011;31718;50.762;12.764;2022-07-05T06:39:03;5.32;;;1.20;;
45988;SDS011;31718;50.762;12.764;2022-07-05T06:41:29;4.40;;;1.48;;
45988;SDS011;31718;50.762;12.764;2022-07-05T06:43:54;4.00;;;1.35;;
45988;SDS011;31718;50.762;12.764;2022-07-05T06:46:20;4.75;;;1.30;;
45988;SDS011;31718;50.762;12.764;2022-07-05T06:48:45;3.88;;;1.40;;
45988;SDS011;31718;50.762;12.764;2022-07-05T06:51:11;4.15;;;1.25;;
45988;SDS011;31718;50.762;12.764;2022-07-05T06:53:37;5.05;;;1.30;;
45988;SDS011;31718;50.762;12.764;2022-07-05T06:56:02;5.15;;;1.50;;
45988;SDS011;31718;50.762;12.764;2022-07-05T06:58:28;4.75;;;1.10;;
45988;SDS011;31718;50.762;12.764;2022-07-05T07:00:54;4.65;;;1.33;;
45988;SDS011;31718;50.762;12.764;2022-07-05T07:03:20;5.38;;;1.20;;
45988;SDS011;31718;50.762;12.764;2022-07-05T07:05:46;4.22;;;1.38;;
45988;SDS011;31718;50.762;12.764;2022-07-05T07:08:11;3.78;;;1.30;;
45988;SDS011;31718;50.762;12.764;2022-07-05T07:10:55;4.00;;;1.10;;
45988;SDS011;31718;50.762;12.764;2022-07-05T07:13:21;4.03;;;1.30;;
45988;SDS011;31718;50.762;12.764;2022-07-05T07:15:47;5.05;;;1.20;;
45988;SDS011;31718;50.762;12.764;2022-07-05T07:18:13;6.65;;;1.40;;
45988;SDS011;31718;50.762;12.764;2022-07-05T07:20:39;4.13;;;1.35;;
45988;SDS011;31718;50.762;12.764;2022-07-05T07:23:04;3.60;;;1.20;;
45988;SDS011;31718;50.762;12.764;2022-07-05T07:25:30;4.43;;;1.30;;
45988;SDS011;31718;50.762;12.764;2022-07-05T07:27:56;4.72;;;1.23;;
45988;SDS011;31718;50.762;12.764;2022-07-05T07:30:22;4.03;;;1.25;;
45988;SDS011;31718;50.762;12.764;2022-07-05T07:32:50;5.93;;;1.10;;
45988;SDS011;31718;50.762;12.764;2022-07-05T07:35:16;6.35;;;1.20;;
45988;SDS011;31718;50.762;12.764;2022-07-05T07:37:41;4.07;;;1.38;;
45988;SDS011;31718;50.762;12.764;2022-07-05T07:40:07;4.50;;;1.20;;
45988;SDS011;31718;50.762;12.764;2022-07-05T07:42:33;3.53;;;1.02;;
45988;SDS011;31718;50.762;12.764;2022-07-05T07:44:59;7.85;;;1.73;;
45988;SDS011;31718;50.762;12.764;2022-07-05T07:47:29;5.10;;;1.13;;
45988;SDS011;31718;50.762;12.764;2022-07-05T07:49:58;4.40;;;1.20;;
45988;SDS011;31718;50.762;12.764;2022-07-05T07:52:25;4.93;;;1.20;;
45988;SDS011;31718;50.762;12.764;2022-07-05T07:54:51;6.00;;;1.30;;
45988;SDS011;31718;50.762;12.764;2022-07-05T07:57:16;5.55;;;1.30;;
45988;SDS011;31718;50.762;12.764;2022-07-05T07:59:42;4.45;;;1.20;;
45988;SDS011;31718;50.762;12.764;2022-07-05T08:02:08;3.60;;;1.15;;
45988;SDS011;31718;50.762;12.764;2022-07-05T08:04:34;4.82;;;1.23;;
45988;SDS011;31718;50.762;12.764;2022-07-05T08:06:59;4.55;;;1.20;;
45988;SDS011;31718;50.762;12.764;2022-07-05T08:09:25;4.90;;;1.38;;
45988;SDS011;31718;50.762;12.764;2022-07-05T08:11:50;4.88;;;1.20;;
45988;SDS011;31718;50.762;12.764;2022-07-05T08:14:16;3.50;;;1.10;;
45988;SDS011;31718;50.762;12.764;2022-07-05T08:16:42;4.63;;;1.20;;
45988;SDS011;31718;50.762;12.764;2022-07-05T08:19:10;6.43;;;1.10;;
45988;SDS011;31718;50.762;12.764;2022-07-05T08:21:54;4.15;;;1.30;;
45988;SDS011;31718;50.762;12.764;2022-07-05T08:24:20;4.82;;;1.20;;
45988;SDS011;31718;50.762;12.764;2022-07-05T08:26:45;4.93;;;1.10;;
45988;SDS011;31718;50.762;12.764;2022-07-05T08:29:12;5.03;;;1.00;;
45988;SDS011;31718;50.762;12.764;2022-07-05T08:31:39;4.82;;;1.17;;
45988;SDS011;31718;50.762;12.764;2022-07-05T08:34:10;5.38;;;1.35;;
45988;SDS011;31718;50.762;12.764;2022-07-05T08:36:37;4.65;;;1.10;;
45988;SDS011;31718;50.762;12.764;2022-07-05T08:39:04;4.03;;;1.10;;
45988;SDS011;31718;50.762;12.764;2022-07-05T08:41:29;4.70;;;1.15;;
45988;SDS011;31718;50.762;12.764;2022-07-05T08:44:00;4.15;;;1.00;;
45988;SDS011;31718;50.762;12.764;2022-07-05T08:46:29;3.50;;;0.95;;
45988;SDS011;31718;50.762;12.764;2022-07-05T08:48:56;3.55;;;1.10;;
45988;SDS011;31718;50.762;12.764;2022-07-05T08:51:27;4.28;;;1.00;;
45988;SDS011;31718;50.762;12.764;2022-07-05T08:53:54;4.22;;;0.90;;
45988;SDS011;31718;50.762;12.764;2022-07-05T08:56:23;4.07;;;0.98;;
45988;SDS011;31718;50.762;12.764;2022-07-05T08:58:48;4.10;;;1.10;;
45988;SDS011;31718;50.762;12.764;2022-07-05T09:01:14;4.82;;;1.10;;
45988;SDS011;31718;50.762;12.764;2022-07-05T09:03:45;3.70;;;1.10;;
45988;SDS011;31718;50.762;12.764;2022-07-05T09:06:17;3.70;;;1.00;;
45988;SDS011;31718;50.762;12.764;2022-07-05T09:08:51;5.38;;;1.20;;
45988;SDS011;31718;50.762;12.764;2022-07-05T09:11:19;5.40;;;1.20;;
45988;SDS011;31718;50.762;12.764;2022-07-05T09:14:18;3.58;;;1.10;;
45988;SDS011;31718;50.762;12.764;2022-07-05T09:16:46;4.47;;;1.02;;
45988;SDS011;31718;50.762;12.764;2022-07-05T09:19:11;3.42;;;0.90;;
45988;SDS011;31718;50.762;12.764;2022-07-05T09:21:37;4.22;;;0.88;;
45988;SDS011;31718;50.762;12.764;2022-07-05T09:24:03;4.60;;;1.20;;
45988;SDS011;31718;50.762;12.764;2022-07-05T09:29:00;4.97;;;1.00;;
45988;SDS011;31718;50.762;12.764;2022-07-05T09:31:32;4.40;;;1.10;;
45988;SDS011;31718;50.762;12.764;2022-07-05T09:37:01;4.65;;;1.10;;
45988;SDS011;31718;50.762;12.764;2022-07-05T09:42:10;3.80;;;1.10;;
45988;SDS011;31718;50.762;12.764;2022-07-05T09:44:53;4.38;;;1.10;;
45988;SDS011;31718;50.762;12.764;2022-07-05T09:47:20;4.13;;;1.10;;
45988;SDS011;31718;50.762;12.764;2022-07-05T09:49:51;5.25;;;1.10;;
45988;SDS011;31718;50.762;12.764;2022-07-05T09:57:41;3.50;;;0.90;;
45988;SDS011;31718;50.762;12.764;2022-07-05T10:00:11;3.33;;;1.05;;
45988;SDS011;31718;50.762;12.764;2022-07-05T10:05:11;6.22;;;1.10;;
45988;SDS011;31718;50.762;12.764;2022-07-05T10:07:42;4.32;;;1.23;;
45988;SDS011;31718;50.762;12.764;2022-07-05T10:10:16;5.32;;;1.00;;
45988;SDS011;31718;50.762;12.764;2022-07-05T10:12:48;4.25;;;1.20;;
45988;SDS011;31718;50.762;12.764;2022-07-05T10:15:23;5.40;;;1.30;;
45988;SDS011;31718;50.762;12.764;2022-07-05T10:20:25;4.97;;;1.20;;
45988;SDS011;31718;50.762;12.764;2022-07-05T10:22:58;3.45;;;1.10;;
45988;SDS011;31718;50.762;12.764;2022-07-05T10:25:27;5.10;;;1.45;;
45988;SDS011;31718;50.762;12.764;2022-07-05T10:27:53;4.28;;;1.15;;
45988;SDS011;31718;50.762;12.764;2022-07-05T10:30:19;5.93;;;1.30;;
45988;SDS011;31718;50.762;12.764;2022-07-05T10:32:47;5.90;;;0.90;;
45988;SDS011;31718;50.762;12.764;2022-07-05T10:35:15;4.32;;;1.20;;
45988;SDS011;31718;50.762;12.764;2022-07-05T10:37:42;3.88;;;1.00;;
45988;SDS011;31718;50.762;12.764;2022-07-05T10:40:08;4.50;;;1.00;;
45988;SDS011;31718;50.762;12.764;2022-07-05T10:42:37;6.38;;;1.05;;
45988;SDS011;31718;50.762;12.764;2022-07-05T10:45:21;6.05;;;1.20;;
45988;SDS011;31718;50.762;12.764;2022-07-05T10:50:57;5.50;;;1.20;;
45988;SDS011;31718;50.762;12.764;2022-07-05T10:53:27;6.80;;;1.13;;
45988;SDS011;31718;50.762;12.764;2022-07-05T11:03:42;3.83;;;1.05;;
45988;SDS011;31718;50.762;12.764;2022-07-05T11:06:08;4.65;;;1.10;;
45988;SDS011;31718;50.762;12.764;2022-07-05T11:14:00;4.60;;;1.23;;
45988;SDS011;31718;50.762;12.764;2022-07-05T11:16:31;4.75;;;1.30;;
45988;SDS011;31718;50.762;12.764;2022-07-05T11:19:08;5.45;;;1.80;;
45988;SDS011;31718;50.762;12.764;2022-07-05T11:21:35;5.00;;;1.67;;
45988;SDS011;31718;50.762;12.764;2022-07-05T11:24:25;4.57;;;1.80;;
45988;SDS011;31718;50.762;12.764;2022-07-05T11:26:52;7.45;;;2.10;;
45988;SDS011;31718;50.762;12.764;2022-07-05T11:34:43;7.68;;;1.50;;
45988;SDS011;31718;50.762;12.764;2022-07-05T11:39:39;4.93;;;1.60;;
45988;SDS011;31718;50.762;12.764;2022-07-05T11:42:05;6.25;;;1.65;;
45988;SDS011;31718;50.762;12.764;2022-07-05T11:44:37;5.10;;;1.60;;
45988;SDS011;31718;50.762;12.764;2022-07-05T11:47:05;5.30;;;1.67;;
45988;SDS011;31718;50.762;12.764;2022-07-05T11:49:31;4.95;;;1.30;;
45988;SDS011;31718;50.762;12.764;2022-07-05T11:52:00;5.25;;;1.67;;
45988;SDS011;31718;50.762;12.764;2022-07-05T11:54:28;5.25;;;1.40;;
45988;SDS011;31718;50.762;12.764;2022-07-05T11:56:55;4.90;;;1.10;;
45988;SDS011;31718;50.762;12.764;2022-07-05T11:59:22;5.10;;;1.30;;
45988;SDS011;31718;50.762;12.764;2022-07-05T12:01:48;3.85;;;1.10;;
45988;SDS011;31718;50.762;12.764;2022-07-05T12:04:20;5.30;;;1.30;;
45988;SDS011;31718;50.762;12.764;2022-07-05T12:06:51;3.60;;;1.00;;
45988;SDS011;31718;50.762;12.764;2022-07-05T12:09:30;4.90;;;1.25;;
45988;SDS011;31718;50.762;12.764;2022-07-05T12:12:20;6.63;;;1.40;;
45988;SDS011;31718;50.762;12.764;2022-07-05T12:15:05;4.32;;;1.23;;
45988;SDS011;31718;50.762;12.764;2022-07-05T12:17:35;5.75;;;1.45;;
45988;SDS011;31718;50.762;12.764;2022-07-05T12:20:06;7.15;;;1.50;;
45988;SDS011;31718;50.762;12.764;2022-07-05T12:22:37;4.07;;;1.13;;
45988;SDS011;31718;50.762;12.764;2022-07-05T12:25:07;3.70;;;1.30;;
45988;SDS011;31718;50.762;12.764;2022-07-05T12:27:38;4.35;;;1.17;;
45988;SDS011;31718;50.762;12.764;2022-07-05T12:30:06;3.80;;;1.20;;
45988;SDS011;31718;50.762;12.764;2022-07-05T12:32:34;4.95;;;1.30;;
45988;SDS011;31718;50.762;12.764;2022-07-05T12:35:31;5.50;;;1.38;;
45988;SDS011;31718;50.762;12.764;2022-07-05T12:38:16;4.65;;;0.93;;
45988;SDS011;31718;50.762;12.764;2022-07-05T12:40:59;4.35;;;1.20;;
45988;SDS011;31718;50.762;12.764;2022-07-05T12:43:25;5.30;;;1.40;;
45988;SDS011;31718;50.762;12.764;2022-07-05T12:46:00;4.35;;;1.40;;
45988;SDS011;31718;50.762;12.764;2022-07-05T12:48:31;3.78;;;1.27;;
45988;SDS011;31718;50.762;12.764;2022-07-05T12:50:58;4.85;;;1.58;;
45988;SDS011;31718;50.762;12.764;2022-07-05T12:53:24;5.07;;;1.40;;
45988;SDS011;31718;50.762;12.764;2022-07-05T12:56:10;3.80;;;1.17;;
45988;SDS011;31718;50.762;12.764;2022-07-05T12:58:55;5.10;;;1.53;;
45988;SDS011;31718;50.762;12.764;2022-07-05T13:01:30;3.85;;;1.27;;
45988;SDS011;31718;50.762;12.764;2022-07-05T13:06:49;8.27;;;1.40;;
45988;SDS011;31718;50.762;12.764;2022-07-05T13:14:32;4.07;;;1.30;;
45988;SDS011;31718;50.762;12.764;2022-07-05T13:16:58;5.10;;;1.20;;
45988;SDS011;31718;50.762;12.764;2022-07-05T13:19:24;4.50;;;1.60;;
45988;SDS011;31718;50.762;12.764;2022-07-05T13:21:50;4.65;;;1.50;;
45988;SDS011;31718;50.762;12.764;2022-07-05T13:24:16;4.30;;;1.23;;
45988;SDS011;31718;50.762;12.764;2022-07-05T13:26:41;4.93;;;1.20;;
45988;SDS011;31718;50.762;12.764;2022-07-05T13:29:07;6.13;;;1.50;;
45988;SDS011;31718;50.762;12.764;2022-07-05T13:31:32;4.60;;;1.30;;
45988;SDS011;31718;50.762;12.764;2022-07-05T13:33:58;6.90;;;1.30;;
45988;SDS011;31718;50.762;12.764;2022-07-05T13:36:25;3.83;;;1.20;;
45988;SDS011;31718;50.762;12.764;2022-07-05T13:38:51;6.32;;;1.40;;
45988;SDS011;31718;50.762;12.764;2022-07-05T13:41:17;5.38;;;1.20;;
45988;SDS011;31718;50.762;12.764;2022-07-05T13:43:43;4.20;;;1.50;;
45988;SDS011;31718;50.762;12.764;2022-07-05T13:46:09;4.68;;;1.20;;
45988;SDS011;31718;50.762;12.764;2022-07-05T13:48:36;6.43;;;1.27;;
45988;SDS011;31718;50.762;12.764;2022-07-05T13:51:02;4.68;;;1.30;;
45988;SDS011;31718;50.762;12.764;2022-07-05T13:53:27;5.22;;;1.45;;
45988;SDS011;31718;50.762;12.764;2022-07-05T13:55:53;3.95;;;1.30;;
45988;SDS011;31718;50.762;12.764;2022-07-05T13:58:19;5.65;;;1.27;;
45988;SDS011;31718;50.762;12.764;2022-07-05T14:00:44;4.75;;;1.40;;
45988;SDS011;31718;50.762;12.764;2022-07-05T14:03:10;3.85;;;1.20;;
45988;SDS011;31718;50.762;12.764;2022-07-05T14:05:35;4.43;;;1.20;;
45988;SDS011;31718;50.762;12.764;2022-07-05T14:08:01;4.85;;;1.17;;
45988;SDS011;31718;50.762;12.764;2022-07-05T14:10:27;3.47;;;1.10;;
45988;SDS011;31718;50.762;12.764;2022-07-05T14:12:53;4.55;;;1.50;;
45988;SDS011;31718;50.762;12.764;2022-07-05T14:15:18;4.78;;;1.20;;
45988;SDS011;31718;50.762;12.764;2022-07-05T14:17:44;3.47;;;1.10;;
45988;SDS011;31718;50.762;12.764;2022-07-05T14:20:10;3.50;;;1.10;;
45988;SDS011;31718;50.762;12.764;2022-07-05T14:22:36;4.03;;;1.23;;
45988;SDS011;31718;50.762;12.764;2022-07-05T14:25:01;4.28;;;1.40;;
45988;SDS011;31718;50.762;12.764;2022-07-05T14:27:27;4.68;;;1.10;;
45988;SDS011;31718;50.762;12.764;2022-07-05T14:29:53;5.25;;;1.20;;
45988;SDS011;31718;50.762;12.764;2022-07-05T14:32:18;4.97;;;1.30;;
45988;SDS011;31718;50.762;12.764;2022-07-05T14:34:44;4.40;;;1.17;;
45988;SDS011;31718;50.762;12.764;2022-07-05T14:37:09;4.63;;;1.30;;
45988;SDS011;31718;50.762;12.764;2022-07-05T14:39:35;4.47;;;1.77;;
45988;SDS011;31718;50.762;12.764;2022-07-05T14:42:00;4.38;;;1.20;;
45988;SDS011;31718;50.762;12.764;2022-07-05T14:44:27;4.65;;;1.05;;
45988;SDS011;31718;50.762;12.764;2022-07-05T14:46:53;4.50;;;1.10;;
45988;SDS011;31718;50.762;12.764;2022-07-05T14:49:19;4.03;;;1.30;;
45988;SDS011;31718;50.762;12.764;2022-07-05T14:51:44;4.57;;;1.10;;
45988;SDS011;31718;50.762;12.764;2022-07-05T14:54:10;4.00;;;1.20;;
45988;SDS011;31718;50.762;12.764;2022-07-05T14:56:36;5.25;;;1.20;;
45988;SDS011;31718;50.762;12.764;2022-07-05T14:59:01;5.00;;;1.15;;
45988;SDS011;31718;50.762;12.764;2022-07-05T15:01:27;6.65;;;1.30;;
45988;SDS011;31718;50.762;12.764;2022-07-05T15:03:53;6.30;;;1.10;;
45988;SDS011;31718;50.762;12.764;2022-07-05T15:06:18;5.68;;;1.20;;
45988;SDS011;31718;50.762;12.764;2022-07-05T15:08:44;4.00;;;1.20;;
45988;SDS011;31718;50.762;12.764;2022-07-05T15:11:09;4.00;;;1.20;;
45988;SDS011;31718;50.762;12.764;2022-07-05T15:13:35;4.90;;;1.40;;
45988;SDS011;31718;50.762;12.764;2022-07-05T15:16:00;4.35;;;1.20;;
45988;SDS011;31718;50.762;12.764;2022-07-05T15:18:26;3.95;;;1.20;;
45988;SDS011;31718;50.762;12.764;2022-07-05T15:20:52;5.45;;;1.23;;
45988;SDS011;31718;50.762;12.764;2022-07-05T15:23:18;4.90;;;1.30;;
45988;SDS011;31718;50.762;12.764;2022-07-05T15:25:52;4.53;;;1.08;;
45988;SDS011;31718;50.762;12.764;2022-07-05T15:28:22;4.80;;;1.30;;